Araruna, Brazil
Current Conditions -  °F | °C
As of 6:00 PM on Thursday 29 Jan 2015 (Local Time) from SBMG Reporting Station
Scattered Clouds Scattered Clouds  
Wind Chill: 72°   Ceiling: Unl
Heat Index: 72°   Visibility: 6mi
Dew Point: 68°   Wind: 3mph
Humidity: 88%   Direction: 200°SSW
Pressure: 29.91"   Gusts: NA
Location:  23.93°S, 52.5°W
Report Text: SBMG 292000Z 20003KT 9999 FEW009 SCT040 22/20 Q1013
Loading
Personal Weather Stations






























Interactive Weather Map New forecast layout! Learn more

10-Day Weather Forecast

Advertisements
Track Severe Weather on mobile